Date,TemperatureHighF,TemperatureAvgF,TemperatureLowF,DewpointHighF,DewpointAvgF,DewpointLowF,HumidityHigh,HumidityAvg,HumidityLow,PressureMaxIn,PressureMinIn,WindSpeedMaxMPH,WindSpeedAvgMPH,GustSpeedMaxMPH,PrecipitationSumIn
2013-7-1,75,69,65,67,66,64,98,89,70,0.00,40.00,11,5,16,0.00
2013-7-2,72,69,67,69,66,65,97,90,83,0.00,40.00,10,5,17,0.00
2013-7-3,74,70,67,71,68,66,98,94,82,0.00,40.00,8,3,12,0.00
2013-7-4,80,72,68,70,68,66,97,88,68,0.00,40.00,10,4,17,0.00
2013-7-5,81,73,67,71,68,66,97,84,66,0.00,40.00,10,4,17,0.00
2013-7-6,83,74,68,70,67,62,94,78,51,0.00,40.00,11,4,15,0.00
2013-7-7,82,72,65,71,66,61,95,83,67,0.00,40.00,15,3,30,0.00
2013-7-8,77,70,64,70,64,62,96,84,63,0.00,40.00,7,2,15,0.00
2013-7-9,82,74,68,72,67,62,92,78,64,0.00,40.00,5,2,9,0.00
2013-7-10,81,72,68,71,65,-100,97,83,68,0.00,40.00,16,2,21,0.00
2013-7-11,81,71,67,72,67,64,98,88,61,0.00,40.00,6,3,10,0.00
2013-7-12,69,65,63,66,62,58,98,88,73,0.00,40.00,12,3,23,0.00
2013-7-13,76,69,63,69,65,62,98,88,70,0.00,40.00,10,3,16,0.00
2013-7-14,80,73,68,69,67,64,95,81,58,0.00,40.00,11,6,18,0.00
2013-7-15,86,76,68,70,68,64,96,78,52,0.00,40.00,6,3,9,0.00
2013-7-16,87,77,71,72,68,65,87,75,57,0.00,40.00,12,5,17,0.00
2013-7-17,85,77,71,75,70,66,91,79,63,0.00,40.00,12,4,17,0.00
2013-7-18,85,78,71,75,71,69,94,80,64,0.00,40.00,8,2,10,0.00
2013-7-19,88,78,72,75,71,67,93,78,55,0.00,40.00,11,3,18,0.00
2013-7-20,85,76,72,72,67,-100,87,73,52,0.00,40.00,10,3,17,0.00
2013-7-21,81,73,68,72,67,63,92,81,67,0.00,40.00,15,3,27,0.00
2013-7-22,83,72,68,71,68,66,98,87,60,0.00,40.00,6,2,12,0.00
2013-7-23,82,74,68,69,65,63,98,74,54,0.00,40.00,9,4,16,0.00
2013-7-24,81,74,68,70,65,59,90,73,53,0.00,40.00,8,3,15,0.00
2013-7-25,76,68,62,63,58,53,83,71,56,0.00,40.00,7,3,11,0.00
2013-7-26,79,69,58,64,59,53,87,72,51,0.00,40.00,8,3,12,0.00
2013-7-27,69,67,65,66,64,63,96,90,81,0.00,40.00,9,3,13,0.00
2013-7-28,78,70,64,65,62,57,97,77,55,0.00,40.00,9,3,14,0.00
2013-7-29,75,66,57,59,54,49,84,65,46,0.00,40.00,9,4,14,0.00
2013-7-30,77,67,58,60,55,51,83,67,47,0.00,40.00,8,3,13,0.00
2013-7-31,71,66,63,63,61,58,98,85,63,0.00,40.00,5,2,9,0.00